Terminal Aerodrome Forecast
Issued by NWS Portland, ME

Home | Current Version | Previous Version | Text Only | Print | Product List | Glossary On
Versions: 1 2 3 4 5 6 7 8 9 10 11 12 13 14 15 16 17 18 19 20
000
FTUS41 KGYX 310527
TAFCON
TAF
KCON 310527Z 3106/0106 VRB03KT P6SM VCSH SCT050 BKN100
     FM311100 13004KT P6SM -SHRA SCT015 OVC035
     FM010000 10004KT 6SM -SHRA BR SCT010 OVC025=

USA.gov is the U.S. government's official web portal to all federal, state and local government web resources and services.